Terminal Aerodrome Forecast
Issued by NWS

Home | Current Version | Previous Version | Text Only | Print | Product List | Glossary Off
Versions: 1 2 3 4 5 6 7 8 9 10 11 12 13 14 15 16 17 18 19 20 21

000
FTUS43 KTOP 010300 AAA
TAFMHK
TAF AMD
KMHK 010308Z 0103/0124 16005KT 6SM BR SCT025 BKN060
     FM010500 19005KT 2SM -SN BKN020 OVC035
     FM011100 27005KT P6SM SCT015 BKN030
     FM011700 30004KT P6SM BKN035=

USA.gov is the U.S. government's official web portal to all federal, state and local government web resources and services.